Time;durP1;ratioP1;P1;durP2;ratioP2;P2;SDS_P1;SDS_P2;PMS_P1;PMS_P2;Temp;Humidity;BMP_temperature;BMP_pressure;BME280_temperature;BME280_humidity;BME280_pressure;Samples;Min_cycle;Max_cycle;Signal;HPM_P1;HPM_P2
2022/03/15 00:01:31;;;;;;;14.68;6.45;;;3.30;99.90;;;;;;5075551;28;20088;-64
2022/03/15 00:03:58;;;;;;;11.85;6.75;;;3.30;99.90;;;;;;5073622;28;20063;-64
2022/03/15 00:06:26;;;;;;;15.35;7.63;;;3.30;99.90;;;;;;5075264;28;20052;-64
2022/03/15 00:08:53;;;;;;;15.88;7.20;;;3.30;99.90;;;;;;5075183;28;20049;-64
2022/03/15 00:11:21;;;;;;;13.32;6.97;;;3.30;99.90;;;;;;5074190;28;20052;-64
2022/03/15 00:13:48;;;;;;;19.05;7.60;;;3.30;99.90;;;;;;5075001;28;20110;-64
2022/03/15 00:16:15;;;;;;;18.05;7.15;;;3.30;99.90;;;;;;5074138;28;20048;-64
2022/03/15 00:18:42;;;;;;;13.70;7.25;;;3.30;99.90;;;;;;5073108;28;20098;-65
2022/03/15 00:21:11;;;;;;;17.20;6.63;;;3.40;99.90;;;;;;5075026;28;20098;-65
2022/03/15 00:23:40;;;;;;;19.90;7.93;;;3.30;99.90;;;;;;5079955;28;20055;-65
2022/03/15 00:26:07;;;;;;;20.45;8.25;;;3.30;99.90;;;;;;5094331;28;20048;-65
2022/03/15 00:28:34;;;;;;;18.20;7.63;;;3.30;99.90;;;;;;5095059;28;20044;-66
2022/03/15 00:31:01;;;;;;;15.35;7.80;;;3.30;99.90;;;;;;5095303;28;20048;-65
2022/03/15 00:33:29;;;;;;;13.20;7.03;;;3.30;99.90;;;;;;5093809;28;20055;-66
2022/03/15 00:35:56;;;;;;;14.57;7.55;;;3.30;99.90;;;;;;5094974;28;20052;-65
2022/03/15 00:38:23;;;;;;;17.05;7.55;;;3.30;99.90;;;;;;5094645;28;20040;-65
2022/03/15 00:40:51;;;;;;;16.88;7.03;;;3.20;99.90;;;;;;5076187;28;20105;-65
2022/03/15 00:43:18;;;;;;;11.40;7.22;;;3.20;99.90;;;;;;5094512;28;20487;-65
2022/03/15 00:45:45;;;;;;;13.18;7.15;;;3.20;99.90;;;;;;5076051;28;20056;-65
2022/03/15 00:48:13;;;;;;;23.90;7.85;;;3.20;99.90;;;;;;5094479;28;20097;-66
2022/03/15 00:50:41;;;;;;;21.52;8.10;;;3.20;99.90;;;;;;5094852;28;20097;-65
2022/03/15 00:53:09;;;;;;;18.58;7.47;;;3.20;99.90;;;;;;5093953;28;20048;-64
2022/03/15 00:55:36;;;;;;;16.70;7.78;;;3.10;99.90;;;;;;5094389;28;20495;-63
2022/03/15 00:58:06;;;;;;;19.88;7.65;;;3.10;99.90;;;;;;5094502;28;20130;-62
2022/03/15 01:00:35;;;;;;;19.70;8.87;;;3.10;99.90;;;;;;5075675;28;20048;-62
2022/03/15 01:03:02;;;;;;;18.73;9.25;;;3.10;99.90;;;;;;5076401;28;20479;-62
2022/03/15 01:05:29;;;;;;;21.80;8.55;;;3.20;99.90;;;;;;5076572;28;20052;-62
2022/03/15 01:07:56;;;;;;;21.83;8.48;;;3.20;99.90;;;;;;5093548;28;20105;-62
2022/03/15 01:10:23;;;;;;;27.77;9.25;;;3.20;99.90;;;;;;5093928;28;20048;-62
2022/03/15 01:12:50;;;;;;;22.67;9.70;;;3.20;99.90;;;;;;5094173;28;20052;-62
2022/03/15 01:15:20;;;;;;;28.42;9.70;;;3.20;99.90;;;;;;5093771;28;20400;-62
2022/03/15 01:17:47;;;;;;;24.40;9.20;;;3.30;99.90;;;;;;5093926;28;20048;-62
2022/03/15 01:20:13;;;;;;;25.48;9.18;;;3.20;99.90;;;;;;5075862;28;20066;-62
2022/03/15 01:22:40;;;;;;;15.98;8.43;;;3.20;99.90;;;;;;5093923;28;20109;-62
2022/03/15 01:25:09;;;;;;;20.20;8.15;;;3.20;99.90;;;;;;5093773;28;20060;-62
2022/03/15 01:27:36;;;;;;;20.02;9.27;;;3.20;99.90;;;;;;5093892;28;20523;-62
2022/03/15 01:30:04;;;;;;;18.08;9.85;;;3.10;99.90;;;;;;5075237;28;20048;-62
2022/03/15 01:32:32;;;;;;;14.32;9.13;;;3.10;99.90;;;;;;5094092;28;20556;-62
2022/03/15 01:34:59;;;;;;;14.93;8.27;;;3.10;99.90;;;;;;5071541;28;20477;-62
2022/03/15 01:37:26;;;;;;;28.27;9.68;;;3.10;99.90;;;;;;5055563;28;20106;-62
2022/03/15 01:39:53;;;;;;;19.38;9.18;;;3.10;99.90;;;;;;5076185;28;20052;-62
2022/03/15 01:42:20;;;;;;;19.63;8.75;;;3.00;99.90;;;;;;5093125;28;20051;-62
2022/03/15 01:44:47;;;;;;;20.83;8.93;;;3.00;99.90;;;;;;5075696;28;20113;-62
2022/03/15 01:47:14;;;;;;;19.90;8.93;;;3.00;99.90;;;;;;5093646;28;20049;-62
2022/03/15 01:49:43;;;;;;;18.88;8.70;;;2.90;99.90;;;;;;5092718;28;20121;-62
2022/03/15 01:52:12;;;;;;;19.10;8.52;;;2.90;99.90;;;;;;5075714;28;20052;-62
2022/03/15 01:54:40;;;;;;;14.77;10.15;;;2.90;99.90;;;;;;5074979;28;20048;-63
2022/03/15 01:57:07;;;;;;;19.63;10.68;;;2.90;99.90;;;;;;5075060;28;20450;-62
2022/03/15 01:59:35;;;;;;;17.23;10.30;;;2.90;99.90;;;;;;5075389;28;20048;-62
2022/03/15 02:02:03;;;;;;;15.93;8.90;;;2.90;99.90;;;;;;5093320;28;20052;-63
2022/03/15 02:04:32;;;;;;;16.23;11.35;;;2.90;99.90;;;;;;5074868;28;20121;-62
2022/03/15 02:07:05;;;;;;;18.20;11.38;;;2.90;99.90;;;;;;5075400;28;20463;-63
2022/03/15 02:09:32;;;;;;;16.85;11.02;;;2.90;99.90;;;;;;5071588;28;20519;-62
2022/03/15 02:11:59;;;;;;;20.90;12.30;;;3.00;99.90;;;;;;5092220;28;20105;-62
2022/03/15 02:14:27;;;;;;;20.58;11.40;;;3.00;99.90;;;;;;5075246;28;20560;-63
2022/03/15 02:16:54;;;;;;;28.50;12.77;;;3.10;99.90;;;;;;5075147;28;20125;-63
2022/03/15 02:19:21;;;;;;;28.90;13.88;;;3.10;99.90;;;;;;5093327;28;20105;-63
2022/03/15 02:21:50;;;;;;;27.58;13.13;;;3.10;99.90;;;;;;5075157;28;20048;-63
2022/03/15 02:24:17;;;;;;;23.17;13.50;;;3.20;99.90;;;;;;5092347;28;20056;-62
2022/03/15 02:26:44;;;;;;;25.55;13.98;;;3.20;99.90;;;;;;5074763;28;20094;-63
2022/03/15 02:29:11;;;;;;;19.88;13.05;;;3.30;99.90;;;;;;5072549;28;20072;-63
2022/03/15 02:31:38;;;;;;;24.80;13.57;;;3.30;99.90;;;;;;5054530;28;20102;-63
2022/03/15 02:34:05;;;;;;;20.08;13.27;;;3.40;99.90;;;;;;5060910;28;20385;-63
2022/03/15 02:36:32;;;;;;;21.33;13.55;;;3.40;99.90;;;;;;5072871;28;20056;-63
2022/03/15 02:39:00;;;;;;;27.38;14.15;;;3.50;99.90;;;;;;5072102;28;20106;-63
2022/03/15 02:41:27;;;;;;;26.33;12.80;;;3.60;99.90;;;;;;5067163;28;20117;-63
2022/03/15 02:43:56;;;;;;;24.55;12.93;;;3.60;99.90;;;;;;5072628;28;20381;-62
2022/03/15 02:46:28;;;;;;;19.90;12.35;;;3.70;99.90;;;;;;5054408;28;20561;-62
2022/03/15 02:48:54;;;;;;;22.20;14.18;;;3.70;99.90;;;;;;5054550;28;20506;-62
2022/03/15 02:51:21;;;;;;;20.02;13.40;;;3.80;99.90;;;;;;5059412;28;20052;-62
2022/03/15 02:53:52;;;;;;;20.27;12.45;;;3.90;99.90;;;;;;5054153;28;20106;-63
2022/03/15 02:56:21;;;;;;;;;;;3.90;99.90;;;;;;5055149;28;20048;-63
2022/03/15 02:58:48;;;;;;;23.48;13.45;;;4.00;99.90;;;;;;5054493;28;19926;-63
2022/03/15 03:01:14;;;;;;;21.30;14.05;;;4.00;99.90;;;;;;5070460;28;20094;-62
2022/03/15 03:03:41;;;;;;;23.48;13.18;;;4.10;99.90;;;;;;5054668;28;20135;-63
2022/03/15 03:06:09;;;;;;;20.80;14.10;;;4.20;99.90;;;;;;5062501;28;20048;-62
2022/03/15 03:08:35;;;;;;;21.70;13.13;;;4.40;99.90;;;;;;5096419;28;20097;-62
2022/03/15 03:11:03;;;;;;;23.85;13.75;;;4.30;99.90;;;;;;5096571;28;20101;-62
2022/03/15 03:13:31;;;;;;;21.58;13.07;;;4.30;99.90;;;;;;5095700;28;20058;-62
2022/03/15 03:16:00;;;;;;;24.58;13.10;;;4.40;99.90;;;;;;5096624;28;20047;-63
2022/03/15 03:18:28;;;;;;;23.05;14.07;;;4.40;99.90;;;;;;5096496;28;20056;-62
2022/03/15 03:20:55;;;;;;;25.42;14.18;;;4.50;99.90;;;;;;5077620;28;20048;-63
2022/03/15 03:23:22;;;;;;;28.23;14.93;;;4.50;99.90;;;;;;5096187;28;20056;-63
2022/03/15 03:25:49;;;;;;;23.63;13.70;;;4.60;99.90;;;;;;5096428;28;20059;-63
2022/03/15 03:28:17;;;;;;;22.70;14.90;;;4.60;99.90;;;;;;5095466;28;20044;-62
2022/03/15 03:30:47;;;;;;;23.90;14.80;;;4.70;99.90;;;;;;5077965;28;20051;-62
2022/03/15 03:33:15;;;;;;;26.48;14.00;;;4.70;99.90;;;;;;5078316;28;20048;-63
2022/03/15 03:35:43;;;;;;;23.63;14.90;;;4.70;99.90;;;;;;5095427;28;20146;-62
2022/03/15 03:38:10;;;;;;;25.33;14.05;;;5.60;99.90;;;;;;5095658;28;20475;-62
2022/03/15 03:40:37;;;;;;;23.77;14.55;;;4.80;99.90;;;;;;5095994;28;20124;-62
2022/03/15 03:43:04;;;;;;;23.13;13.90;;;4.80;99.90;;;;;;5077189;28;20051;-62
2022/03/15 03:45:31;;;;;;;24.00;14.32;;;4.80;99.90;;;;;;5095936;28;20052;-62
2022/03/15 03:47:59;;;;;;;21.92;13.40;;;4.90;99.90;;;;;;5095807;28;20047;-63
2022/03/15 03:50:26;;;;;;;26.45;14.85;;;4.90;99.90;;;;;;5077116;28;20105;-63
2022/03/15 03:52:53;;;;;;;32.22;14.65;;;4.90;99.90;;;;;;5077827;28;20063;-62
2022/03/15 03:55:21;;;;;;;25.38;13.77;;;5.00;99.90;;;;;;5095540;28;20055;-63
2022/03/15 03:57:48;;;;;;;19.98;13.60;;;5.00;99.90;;;;;;5077841;28;20048;-63
2022/03/15 04:00:16;;;;;;;23.73;12.48;;;5.00;99.90;;;;;;5077318;28;20048;-63
2022/03/15 04:02:43;;;;;;;21.75;13.15;;;5.10;99.90;;;;;;5077174;28;20070;-63
2022/03/15 04:05:12;;;;;;;23.55;13.63;;;5.10;99.90;;;;;;5077586;28;20065;-63
2022/03/15 04:07:40;;;;;;;23.00;12.95;;;5.10;99.90;;;;;;5095265;28;20059;-62
2022/03/15 04:10:08;;;;;;;26.30;12.63;;;5.20;99.90;;;;;;5094679;28;20116;-62
2022/03/15 04:12:35;;;;;;;25.42;13.35;;;5.20;99.90;;;;;;5095478;28;20503;-63
2022/03/15 04:15:02;;;;;;;27.10;13.70;;;5.30;99.90;;;;;;5095392;28;20047;-63
2022/03/15 04:17:29;;;;;;;20.92;11.98;;;5.30;99.90;;;;;;5094364;28;20097;-63
2022/03/15 04:19:56;;;;;;;23.27;11.88;;;5.40;99.90;;;;;;5095421;28;20040;-63
2022/03/15 04:22:24;;;;;;;25.58;11.80;;;5.40;99.90;;;;;;5095398;28;20051;-63
2022/03/15 04:24:51;;;;;;;24.20;11.95;;;5.50;99.90;;;;;;5094020;28;20434;-63
2022/03/15 04:27:18;;;;;;;24.42;11.65;;;5.50;99.90;;;;;;5095075;28;20094;-63
2022/03/15 04:29:45;;;;;;;20.02;12.07;;;5.50;99.90;;;;;;5077312;28;20090;-63
2022/03/15 04:32:12;;;;;;;26.45;12.45;;;5.60;99.90;;;;;;5094330;28;20055;-63
2022/03/15 04:34:39;;;;;;;31.35;12.52;;;5.60;99.90;;;;;;5095041;28;20136;-63
2022/03/15 04:37:06;;;;;;;21.83;12.55;;;5.70;99.90;;;;;;5076843;28;20044;-63
2022/03/15 04:39:35;;;;;;;22.67;11.60;;;5.60;99.90;;;;;;5075935;28;20046;-64
2022/03/15 04:42:02;;;;;;;21.70;12.95;;;5.70;99.90;;;;;;5076892;28;20052;-65
2022/03/15 04:44:29;;;;;;;24.02;11.40;;;5.70;99.90;;;;;;5094822;28;20055;-64
2022/03/15 04:46:56;;;;;;;21.52;12.32;;;5.70;99.90;;;;;;5093991;28;20109;-65
2022/03/15 04:49:24;;;;;;;22.45;11.93;;;5.70;99.90;;;;;;5066475;28;20090;-64
2022/03/15 04:51:51;;;;;;;21.70;10.85;;;5.80;99.90;;;;;;5067025;28;20134;-63
2022/03/15 04:54:18;;;;;;;22.77;11.48;;;5.80;99.90;;;;;;5066318;28;20601;-64
2022/03/15 04:56:46;;;;;;;27.42;11.45;;;5.80;99.90;;;;;;5064893;28;20106;-64
2022/03/15 04:59:13;;;;;;;17.60;10.90;;;5.80;99.90;;;;;;5084177;28;20052;-63
2022/03/15 05:01:39;;;;;;;23.48;11.65;;;5.70;99.90;;;;;;5090567;28;20522;-63
2022/03/15 05:04:06;;;;;;;18.63;11.55;;;5.70;99.90;;;;;;5085715;28;20549;-63
2022/03/15 05:06:34;;;;;;;23.98;10.45;;;5.80;99.90;;;;;;5092475;28;20072;-64
2022/03/15 05:09:01;;;;;;;21.58;10.85;;;5.80;99.90;;;;;;5086192;28;20426;-62
2022/03/15 05:11:28;;;;;;;17.77;9.98;;;5.70;99.90;;;;;;5084878;28;20071;-63
2022/03/15 05:13:56;;;;;;;19.92;10.73;;;5.70;99.90;;;;;;5065319;28;20052;-63
2022/03/15 05:16:23;;;;;;;20.40;10.75;;;5.70;99.90;;;;;;5090729;28;20048;-63
2022/03/15 05:18:52;;;;;;;20.42;10.57;;;5.70;99.90;;;;;;5087029;28;20047;-63
2022/03/15 05:21:19;;;;;;;23.27;10.55;;;5.70;99.90;;;;;;5083945;28;20067;-64
2022/03/15 05:23:47;;;;;;;21.70;10.98;;;5.70;99.90;;;;;;5069500;28;20419;-64
2022/03/15 05:26:16;;;;;;;21.92;11.43;;;5.70;99.90;;;;;;5084153;28;20113;-61
2022/03/15 05:28:43;;;;;;;17.90;10.68;;;5.70;99.90;;;;;;5082149;28;20040;-61
2022/03/15 05:31:12;;;;;;;27.58;11.45;;;5.70;99.90;;;;;;5071944;28;20479;-63
2022/03/15 05:33:39;;;;;;;25.05;12.35;;;5.80;99.90;;;;;;5067597;28;20086;-63
2022/03/15 05:36:06;;;;;;;25.23;11.98;;;5.70;99.90;;;;;;5084750;28;20418;-63
2022/03/15 05:38:33;;;;;;;21.60;12.50;;;5.70;99.90;;;;;;5076280;28;20045;-63
2022/03/15 05:41:00;;;;;;;19.98;12.02;;;5.70;99.90;;;;;;5072384;28;20506;-63
2022/03/15 05:43:27;;;;;;;24.55;12.40;;;5.70;99.90;;;;;;5072201;28;20048;-62
2022/03/15 05:45:53;;;;;;;25.13;13.02;;;5.80;99.90;;;;;;5072266;28;20044;-62
2022/03/15 05:48:22;;;;;;;21.95;12.40;;;5.80;99.90;;;;;;5071439;28;20052;-63
2022/03/15 05:50:49;;;;;;;25.70;12.40;;;5.80;99.90;;;;;;5062248;28;20079;-63
2022/03/15 05:53:16;;;;;;;30.80;13.88;;;5.80;99.90;;;;;;5071867;28;20044;-63
2022/03/15 05:55:42;;;;;;;24.58;12.35;;;5.90;99.90;;;;;;5071743;28;20056;-70
2022/03/15 05:58:10;;;;;;;23.60;13.55;;;5.80;99.90;;;;;;5080005;28;20369;-62
2022/03/15 06:00:38;;;;;;;33.10;15.20;;;5.80;99.90;;;;;;5067491;28;20048;-63
2022/03/15 06:03:05;;;;;;;26.60;15.13;;;5.90;99.90;;;;;;5088638;28;20126;-62
2022/03/15 06:05:34;;;;;;;24.83;15.00;;;5.90;99.90;;;;;;5086576;28;20056;-62
2022/03/15 06:08:01;;;;;;;27.58;14.68;;;5.80;99.90;;;;;;5088732;28;20058;-62
2022/03/15 06:10:28;;;;;;;24.95;15.82;;;5.90;99.90;;;;;;5070003;28;20052;-62
2022/03/15 06:12:55;;;;;;;25.13;14.88;;;5.90;99.90;;;;;;5086363;28;20044;-62
2022/03/15 06:15:22;;;;;;;18.38;11.15;;;5.90;99.90;;;;;;5067098;28;20059;-63
2022/03/15 06:17:50;;;;;;;30.77;14.75;;;6.10;99.90;;;;;;5077901;28;20058;-63
2022/03/15 06:20:19;;;;;;;26.23;14.57;;;6.10;99.90;;;;;;5083934;28;20051;-62
2022/03/15 06:22:48;;;;;;;27.90;15.77;;;6.10;99.90;;;;;;5061186;28;20511;-63
2022/03/15 06:25:15;;;;;;;31.83;15.77;;;6.10;99.90;;;;;;5080696;28;20052;-63
2022/03/15 06:27:43;;;;;;;25.95;15.20;;;6.10;99.90;;;;;;5081844;28;20080;-63
2022/03/15 06:30:12;;;;;;;25.17;14.85;;;6.10;99.90;;;;;;5070148;28;20040;-63
2022/03/15 06:32:40;;;;;;;33.22;16.00;;;6.10;99.90;;;;;;5067488;28;20063;-62
2022/03/15 06:35:09;;;;;;;27.67;15.45;;;6.10;99.90;;;;;;5085444;28;20048;-62
2022/03/15 06:37:40;;;;;;;30.77;15.93;;;6.10;99.90;;;;;;5088359;28;20052;-62
2022/03/15 06:40:10;;;;;;;27.92;15.77;;;6.20;99.90;;;;;;5086723;28;20047;-62
2022/03/15 06:42:38;;;;;;;30.90;16.75;;;6.20;99.90;;;;;;5087115;28;20423;-63
2022/03/15 06:45:06;;;;;;;23.17;15.05;;;6.30;99.90;;;;;;5087306;28;20528;-63
2022/03/15 06:47:33;;;;;;;28.23;15.32;;;6.30;99.90;;;;;;5073966;28;20052;-63
2022/03/15 06:50:00;;;;;;;36.22;16.35;;;6.30;99.90;;;;;;5090474;28;20559;-63
2022/03/15 06:52:27;;;;;;;29.15;17.02;;;6.30;99.90;;;;;;5072426;28;20139;-63
2022/03/15 06:54:55;;;;;;;32.65;16.90;;;6.30;99.90;;;;;;5091660;28;20564;-63
2022/03/15 06:57:23;;;;;;;30.77;16.98;;;6.40;99.90;;;;;;5089730;28;20058;-64
2022/03/15 06:59:50;;;;;;;31.15;16.50;;;6.40;99.90;;;;;;5075039;28;20060;-63
2022/03/15 07:02:17;;;;;;;28.90;17.30;;;6.50;99.90;;;;;;5077343;28;20052;-65
2022/03/15 07:04:44;;;;;;;29.58;17.52;;;6.50;99.90;;;;;;5095892;28;20055;-64
2022/03/15 07:07:11;;;;;;;26.33;15.35;;;6.60;99.90;;;;;;5077775;28;20052;-64
2022/03/15 07:09:38;;;;;;;29.48;16.90;;;6.60;99.90;;;;;;5078525;28;20048;-64
2022/03/15 07:12:05;;;;;;;26.05;17.23;;;6.60;99.90;;;;;;5096439;28;20048;-64
2022/03/15 07:14:33;;;;;;;36.20;17.63;;;6.70;99.90;;;;;;5077758;28;20097;-64
2022/03/15 07:17:00;;;;;;;27.42;17.88;;;6.80;99.90;;;;;;5074883;28;20052;-64
2022/03/15 07:19:27;;;;;;;30.67;16.95;;;6.80;99.90;;;;;;5076189;28;20431;-63
2022/03/15 07:21:55;;;;;;;33.10;18.13;;;6.80;99.90;;;;;;5057675;28;20040;-64
2022/03/15 07:24:22;;;;;;;26.33;16.23;;;6.90;99.90;;;;;;5088600;28;20105;-64
2022/03/15 07:26:49;;;;;;;36.53;17.75;;;6.90;99.90;;;;;;5095787;28;20051;-64
2022/03/15 07:29:16;;;;;;;27.58;17.10;;;7.00;99.90;;;;;;5078332;28;20048;-64
2022/03/15 07:31:44;;;;;;;32.30;16.98;;;7.00;99.90;;;;;;5077997;28;20384;-64
2022/03/15 07:34:11;;;;;;;29.17;16.52;;;7.10;99.90;;;;;;5077341;28;20050;-64
2022/03/15 07:36:38;;;;;;;29.08;16.48;;;7.10;99.90;;;;;;5093368;28;20052;-64
2022/03/15 07:39:05;;;;;;;32.53;16.50;;;7.20;99.90;;;;;;5080033;28;20109;-64
2022/03/15 07:41:32;;;;;;;34.80;17.45;;;7.20;99.90;;;;;;5095084;28;20044;-64
2022/03/15 07:44:00;;;;;;;32.10;16.70;;;7.20;99.90;;;;;;5077928;28;20193;-64
2022/03/15 07:46:27;;;;;;;31.48;17.92;;;7.20;99.90;;;;;;5090981;28;20059;-64
2022/03/15 07:48:55;;;;;;;30.60;17.08;;;7.30;99.90;;;;;;5096625;28;20548;-64
2022/03/15 07:51:22;;;;;;;29.30;17.17;;;7.30;99.90;;;;;;5095818;28;20048;-64
2022/03/15 07:53:49;;;;;;;29.75;16.98;;;7.40;99.90;;;;;;5098057;28;20044;-64
2022/03/15 07:56:17;;;;;;;30.02;17.38;;;7.40;99.90;;;;;;5097094;28;20051;-63
2022/03/15 07:58:43;;;;;;;31.00;17.45;;;7.40;99.90;;;;;;5116277;28;20052;-64
2022/03/15 08:01:10;;;;;;;29.95;16.92;;;7.50;99.90;;;;;;5115962;28;20495;-64
2022/03/15 08:03:37;;;;;;;33.10;17.52;;;7.50;99.90;;;;;;5097118;28;20058;-63
2022/03/15 08:06:05;;;;;;;32.95;17.80;;;7.50;99.90;;;;;;5097884;28;20043;-64
2022/03/15 08:08:32;;;;;;;28.27;17.40;;;7.50;99.90;;;;;;5107673;28;20044;-63
2022/03/15 08:11:06;;;;;;;33.25;17.60;;;7.50;99.90;;;;;;5099226;28;20490;-64
2022/03/15 08:13:32;;;;;;;29.77;17.88;;;7.60;99.90;;;;;;5097509;28;20097;-63
2022/03/15 08:15:59;;;;;;;27.95;17.70;;;7.60;99.90;;;;;;5105132;28;20122;-64
2022/03/15 08:18:26;;;;;;;26.10;17.70;;;7.60;99.90;;;;;;5095191;28;20048;-64
2022/03/15 08:20:55;;;;;;;32.50;18.23;;;7.60;99.90;;;;;;5094974;28;20052;-64
2022/03/15 08:23:23;;;;;;;31.85;17.45;;;7.60;99.90;;;;;;5094118;28;20044;-64
2022/03/15 08:25:50;;;;;;;36.13;19.90;;;7.70;99.90;;;;;;5095383;28;20415;-64
2022/03/15 08:28:17;;;;;;;34.03;17.52;;;7.70;99.90;;;;;;5076901;28;20044;-64
2022/03/15 08:30:44;;;;;;;31.77;18.48;;;7.70;99.90;;;;;;5076220;28;20051;-63
2022/03/15 08:33:11;;;;;;;29.10;16.80;;;7.80;99.90;;;;;;5094984;28;20055;-64
2022/03/15 08:35:37;;;;;;;31.92;17.67;;;7.80;99.90;;;;;;5094665;28;20055;-64
2022/03/15 08:38:04;;;;;;;29.67;16.42;;;7.80;99.90;;;;;;5094112;28;20048;-64
2022/03/15 08:40:33;;;;;;;29.25;17.42;;;7.90;99.90;;;;;;5095049;28;20044;-64
2022/03/15 08:43:00;;;;;;;28.75;16.73;;;7.90;99.90;;;;;;5094407;28;20468;-65
2022/03/15 08:45:27;;;;;;;29.77;16.38;;;8.00;99.90;;;;;;5101286;28;20047;-64
2022/03/15 08:47:54;;;;;;;30.02;17.20;;;8.10;99.90;;;;;;5102241;28;20097;-64
2022/03/15 08:50:21;;;;;;;26.50;16.80;;;8.10;99.90;;;;;;5076637;28;20044;-64
2022/03/15 08:52:48;;;;;;;38.85;17.15;;;8.20;99.90;;;;;;5093910;28;20050;-64
2022/03/15 08:55:16;;;;;;;27.67;16.38;;;8.20;99.90;;;;;;5076420;28;20084;-64
2022/03/15 08:57:44;;;;;;;27.77;17.35;;;8.30;99.90;;;;;;5094570;28;20056;-64
2022/03/15 09:00:12;;;;;;;33.30;16.73;;;8.30;99.90;;;;;;5075949;28;20059;-64
2022/03/15 09:02:39;;;;;;;25.65;16.70;;;8.40;99.90;;;;;;5094420;28;20056;-64
2022/03/15 09:05:07;;;;;;;30.00;14.88;;;8.40;99.90;;;;;;5092451;28;20808;-64
2022/03/15 09:07:36;;;;;;;25.02;15.15;;;8.40;99.90;;;;;;5076351;28;20440;-63
2022/03/15 09:10:03;;;;;;;29.55;16.52;;;8.50;99.90;;;;;;5072496;28;20059;-64
2022/03/15 09:12:30;;;;;;;23.63;15.73;;;8.60;99.90;;;;;;5073461;28;20057;-63
2022/03/15 09:14:58;;;;;;;24.83;15.48;;;8.70;99.90;;;;;;5073799;28;20094;-63
2022/03/15 09:17:25;;;;;;;25.00;14.75;;;8.80;99.90;;;;;;5073900;28;20055;-63
2022/03/15 09:19:52;;;;;;;27.83;16.25;;;8.90;99.90;;;;;;5055248;28;20105;-63
2022/03/15 09:22:19;;;;;;;30.88;16.58;;;9.00;99.90;;;;;;5073900;28;20041;-63
2022/03/15 09:24:46;;;;;;;27.63;16.85;;;9.10;99.90;;;;;;5092625;28;20102;-63
2022/03/15 09:27:13;;;;;;;25.80;15.82;;;9.20;99.90;;;;;;5093191;28;20054;-64
2022/03/15 09:29:40;;;;;;;23.15;15.77;;;9.20;99.90;;;;;;5075771;28;20522;-64
2022/03/15 09:32:10;;;;;;;24.90;15.27;;;9.20;99.90;;;;;;5093678;28;20040;-64
2022/03/15 09:34:37;;;;;;;24.02;15.23;;;9.20;99.90;;;;;;5075171;28;20051;-64
2022/03/15 09:37:05;;;;;;;26.80;16.02;;;9.20;99.90;;;;;;5093741;28;20052;-64
2022/03/15 09:39:32;;;;;;;30.33;18.02;;;9.30;99.90;;;;;;5093461;28;20590;-64
2022/03/15 09:42:00;;;;;;;23.75;15.75;;;9.30;99.90;;;;;;5093068;28;20514;-65
2022/03/15 09:44:28;;;;;;;23.25;15.88;;;9.40;99.90;;;;;;5093581;28;20048;-64
2022/03/15 09:47:00;;;;;;;26.15;15.68;;;9.50;99.90;;;;;;5095266;28;20104;-64
2022/03/15 09:49:29;;;;;;;26.33;17.15;;;9.50;99.90;;;;;;5113449;28;20097;-63
2022/03/15 09:51:57;;;;;;;26.60;16.83;;;9.60;99.90;;;;;;5113808;28;20100;-63
2022/03/15 09:54:25;;;;;;;23.15;15.23;;;9.70;99.90;;;;;;5079204;28;20438;-64
2022/03/15 09:56:53;;;;;;;28.42;15.85;;;9.80;99.90;;;;;;5093256;28;20070;-64
2022/03/15 09:59:21;;;;;;;25.25;16.52;;;9.90;99.90;;;;;;5093465;28;20052;-64
2022/03/15 10:01:50;;;;;;;24.15;15.23;;;10.10;99.90;;;;;;5092883;28;20044;-64
2022/03/15 10:04:17;;;;;;;21.95;15.65;;;10.30;99.90;;;;;;5093679;28;20055;-64
2022/03/15 10:06:46;;;;;;;23.15;15.45;;;10.50;99.90;;;;;;5075171;28;20052;-63
2022/03/15 10:09:13;;;;;;;25.10;15.27;;;10.80;99.90;;;;;;5071110;28;20466;-63
2022/03/15 10:11:41;;;;;;;28.35;14.65;;;11.10;99.90;;;;;;5072772;28;20483;-64
2022/03/15 10:14:09;;;;;;;24.80;15.27;;;11.30;99.90;;;;;;5058873;28;20047;-64
2022/03/15 10:16:40;;;;;;;20.95;14.38;;;11.30;99.90;;;;;;5092244;28;20496;-64
2022/03/15 10:19:09;;;;;;;26.35;16.02;;;11.40;99.90;;;;;;5093080;28;20052;-64
2022/03/15 10:21:42;;;;;;;25.15;16.65;;;11.30;99.90;;;;;;5087432;28;20051;-64
2022/03/15 10:24:11;;;;;;;24.48;15.90;;;11.20;99.90;;;;;;5075721;28;20059;-64
2022/03/15 10:26:41;;;;;;;21.00;14.40;;;11.20;99.90;;;;;;5071679;28;20069;-63
2022/03/15 10:29:11;;;;;;;26.25;16.52;;;11.30;99.90;;;;;;5071315;28;20055;-63
2022/03/15 10:31:39;;;;;;;22.65;15.57;;;11.40;99.90;;;;;;5061336;28;20048;-64
2022/03/15 10:34:07;;;;;;;25.92;15.85;;;11.60;99.90;;;;;;5073952;28;20048;-63
2022/03/15 10:36:38;;;;;;;22.58;14.55;;;11.70;99.90;;;;;;5071601;28;20131;-63
2022/03/15 10:39:06;;;;;;;27.45;13.07;;;11.50;99.90;;;;;;5070768;28;20139;-64
2022/03/15 10:41:45;;;;;;;23.10;15.30;;;11.40;99.90;;;;;;5062718;28;20078;-63
2022/03/15 10:44:21;;;;;;;21.98;14.02;;;11.30;99.90;;;;;;5084975;28;20047;-63
2022/03/15 10:46:59;;;;;;;26.20;15.27;;;11.30;99.90;;;;;;5087437;28;20109;-64
2022/03/15 10:49:26;;;;;;;25.02;14.13;;;11.10;99.90;;;;;;5064396;28;20135;-63
2022/03/15 10:51:53;;;;;;;25.88;15.50;;;11.00;99.90;;;;;;5053264;28;20102;-63
2022/03/15 10:54:24;;;;;;;23.00;14.88;;;10.80;99.90;;;;;;5058311;28;20050;-63
2022/03/15 10:56:56;;;;;;;;;;;10.70;99.90;;;;;;5058145;28;20102;-63
2022/03/15 10:59:23;;;;;;;20.92;14.65;;;10.60;99.90;;;;;;5070974;28;19927;-64
2022/03/15 11:01:51;;;;;;;19.90;13.85;;;10.50;99.90;;;;;;5071662;28;20415;-63
2022/03/15 11:04:19;;;;;;;25.90;15.27;;;10.40;99.90;;;;;;5088709;28;20048;-63
2022/03/15 11:06:47;;;;;;;20.13;13.82;;;10.30;99.90;;;;;;5052821;28;20102;-63
2022/03/15 11:09:23;;;;;;;19.98;14.00;;;10.20;99.90;;;;;;5056563;28;20397;-64
2022/03/15 11:11:59;;;;;;;22.73;15.43;;;10.10;99.90;;;;;;5061597;28;20044;-64
2022/03/15 11:14:36;;;;;;;25.85;15.13;;;10.10;99.90;;;;;;5079650;28;20052;-63
2022/03/15 11:17:07;;;;;;;20.85;14.10;;;10.10;99.90;;;;;;5081214;28;20052;-64
2022/03/15 11:19:39;;;;;;;24.80;15.50;;;10.00;99.90;;;;;;5080718;28;20114;-63
2022/03/15 11:22:07;;;;;;;21.80;15.48;;;10.10;99.90;;;;;;5076220;28;20385;-63
2022/03/15 11:24:38;;;;;;;24.33;15.77;;;10.00;99.90;;;;;;5078336;28;20396;-63
2022/03/15 11:27:08;;;;;;;25.45;15.93;;;10.00;99.90;;;;;;5082827;28;20087;-63
2022/03/15 11:29:38;;;;;;;26.40;16.50;;;9.90;99.90;;;;;;5085040;28;20127;-64
2022/03/15 11:32:07;;;;;;;23.65;14.85;;;9.90;99.90;;;;;;5072005;28;20037;-64
2022/03/15 11:34:35;;;;;;;26.58;15.85;;;9.90;99.90;;;;;;5073289;28;20041;-64
2022/03/15 11:37:04;;;;;;;24.60;14.45;;;9.90;99.90;;;;;;5073360;28;20060;-64
2022/03/15 11:39:32;;;;;;;21.55;13.77;;;9.90;99.90;;;;;;5075038;28;20056;-64
2022/03/15 11:42:00;;;;;;;18.50;12.15;;;9.90;99.90;;;;;;5082068;28;20044;-64
2022/03/15 11:44:36;;;;;;;22.10;13.23;;;9.90;99.90;;;;;;5084005;28;20097;-64
2022/03/15 11:47:11;;;;;;;15.27;10.30;;;9.80;99.90;;;;;;5055871;28;20060;-64
2022/03/15 11:49:47;;;;;;;17.50;11.27;;;9.80;99.90;;;;;;5074006;28;20048;-64
2022/03/15 11:52:23;;;;;;;21.00;11.15;;;9.80;99.90;;;;;;5075065;28;20052;-64
2022/03/15 11:54:56;;;;;;;20.45;10.80;;;9.80;99.90;;;;;;5087388;28;20056;-64
2022/03/15 11:57:30;;;;;;;16.98;11.13;;;9.70;99.90;;;;;;5074191;28;20055;-64
2022/03/15 12:00:00;;;;;;;18.55;12.15;;;9.60;99.90;;;;;;5056845;28;20046;-64
2022/03/15 12:02:28;;;;;;;27.23;14.27;;;9.50;99.90;;;;;;5052582;28;20053;-64
2022/03/15 12:04:57;;;;;;;20.50;13.60;;;9.50;99.90;;;;;;5076384;28;20147;-63
2022/03/15 12:07:45;;;;;;;26.52;16.00;;;9.40;99.90;;;;;;5061204;28;20059;-64
2022/03/15 12:10:12;;;;;;;28.20;16.73;;;9.40;99.90;;;;;;5087803;28;20050;-64
2022/03/15 12:12:42;;;;;;;29.33;16.35;;;9.40;99.90;;;;;;5094111;28;20067;-64
2022/03/15 12:15:17;;;;;;;34.83;17.60;;;9.50;99.90;;;;;;5094498;28;20123;-64
2022/03/15 12:17:44;;;;;;;27.20;16.02;;;9.50;99.90;;;;;;5095181;28;20052;-64
2022/03/15 12:20:16;;;;;;;24.52;15.63;;;9.60;99.90;;;;;;5094874;28;20238;-64
2022/03/15 12:22:47;;;;;;;25.05;14.75;;;9.70;99.90;;;;;;5076318;28;20058;-64
2022/03/15 12:25:17;;;;;;;23.08;14.85;;;9.80;99.90;;;;;;5095029;28;20055;-64
2022/03/15 12:27:46;;;;;;;24.33;13.80;;;9.90;99.90;;;;;;5077359;28;20109;-64
2022/03/15 12:30:26;;;;;;;23.98;15.20;;;10.00;99.90;;;;;;5094549;28;20131;-64
2022/03/15 12:32:54;;;;;;;25.23;14.63;;;10.10;99.90;;;;;;5094903;28;20048;-64
2022/03/15 12:35:25;;;;;;;21.23;13.48;;;10.30;99.90;;;;;;5077023;28;20133;-64
2022/03/15 12:37:52;;;;;;;19.65;11.98;;;10.50;99.90;;;;;;5076433;28;20059;-64
2022/03/15 12:40:18;;;;;;;18.90;12.52;;;10.80;99.90;;;;;;5077088;28;20105;-64
2022/03/15 12:42:53;;;;;;;23.63;14.40;;;11.10;99.90;;;;;;5094769;28;20052;-63